Latest Weather Observations for Lucinda

IDQ60801

Issued at 6:35 pm EST Tuesday 21 October 2014 (issued every 30 minutes, with the page automatically refreshed every 10 minutes)

About weather observations | Map of weather stations | Latest weather observations for QLD | Other Formats
Station Details ID: 032141 Name: LUCINDA POINT Lat: -18.52 Lon: 146.39 Height: 10.0 m
Data from the previous 72 hours. | See also: Recent months for locations in Queensland
Date/Time
EST
Temp
°C
App
Temp
°C
Dew
Point
Rel
Hum
%
Delta-T
°C
Wind Press
QNH
hPa
Press
MSL
hPa
Rain
since 9 am
mm
Dir
 
Spd
km/h
Gust
km/h
Spd
kts
Gust
kts
21/06:30pm 24.1 20.9 16.4 62 4.7 ESE 28 44 15 24 1018.9 1018.9 0.0
21/06:00pm 24.6 21.4 16.3 60 5.1 ESE 28 46 15 25 1018.6 1018.6 0.0
21/05:47pm 24.6 20.6 15.2 55 5.6 ESE 30 50 16 27 1018.4 1018.4 0.0
21/05:30pm 24.7 21.4 15.1 55 5.8 ESE 26 41 14 22 1018.2 1018.2 0.0
21/05:00pm 25.0 21.4 14.2 51 6.4 ESE 26 41 14 22 1018.1 1018.1 0.0
21/04:30pm 25.1 21.3 13.6 49 6.7 ESE 26 41 14 22 1017.9 1017.9 0.0
21/04:00pm 25.2 21.6 13.1 47 7.0 SE 24 39 13 21 1017.9 1017.9 0.0
21/03:30pm 25.3 21.9 12.5 45 7.4 ESE 22 37 12 20 1018.0 1018.0 0.0
21/03:00pm 25.2 21.9 14.0 49 6.6 ESE 24 39 13 21 1018.1 1018.1 0.0
21/02:30pm 25.1 22.2 13.9 49 6.6 ESE 22 37 12 20 1018.2 1018.2 0.0
21/02:00pm 25.0 20.9 13.9 50 6.5 SE 28 44 15 24 1018.4 1018.4 0.0
21/01:32pm 24.9 20.8 13.8 50 6.5 ESE 28 46 15 25 1018.7 1018.7 0.0
21/01:30pm 25.0 21.2 13.5 48 6.7 ESE 26 46 14 25 1018.8 1018.8 0.0
21/01:12pm 25.0 21.0 14.2 51 6.4 ESE 28 46 15 25 1018.9 1018.9 0.0
21/01:00pm 25.0 20.5 14.8 53 6.1 SE 32 44 17 24 1018.9 1018.9 0.0
21/12:30pm 25.2 22.0 13.1 47 7.0 SE 22 37 12 20 1019.3 1019.3 0.0
21/12:00pm 25.4 22.6 14.2 50 6.6 SE 22 35 12 19 1019.8 1019.8 0.0
21/11:30am 25.0 21.9 14.5 52 6.2 SE 24 37 13 20 1020.0 1020.0 0.0
21/11:00am 24.8 21.3 14.6 53 6.1 SE 26 39 14 21 1020.3 1020.3 0.0
21/10:30am 25.1 21.8 15.1 53 6.0 ESE 26 37 14 20 1020.4 1020.4 0.0
21/10:00am 25.3 22.5 13.2 47 7.0 ESE 20 32 11 17 1020.6 1020.6 0.0
21/09:30am 25.2 21.8 13.7 49 6.8 SE 24 32 13 17 1020.5 1020.5 0.0
21/09:00am 25.2 22.2 12.4 45 7.3 SE 20 39 11 21 1020.4 1020.4 0.0
21/08:30am 25.0 21.5 13.5 48 6.7 ESE 24 41 13 22 1020.2 1020.2 0.0
21/08:00am 25.0 21.9 12.2 44 7.3 SSE 20 35 11 19 1019.9 1019.9 0.0
21/07:30am 24.5 19.5 12.1 46 7.1 SE 30 43 16 23 1019.6 1019.6 0.0
21/07:00am 24.8 22.1 13.4 49 6.6 ENE 20 41 11 22 1019.0 1019.0 0.0
21/06:30am 24.1 21.6 14.2 54 5.8 SE 20 43 11 23 1018.5 1018.5 0.0
21/06:00am 24.0 21.7 15.8 60 5.0 SE 22 35 12 19 1018.3 1018.3 0.0
21/05:30am 23.8 21.2 14.8 57 5.4 SE 22 37 12 20 1017.8 1017.8 0.0
21/05:00am 23.2 21.7 16.3 65 4.2 SE 19 32 10 17 1017.6 1017.6 0.0
21/04:30am 23.1 21.7 16.6 67 4.0 S 19 28 10 15 1017.4 1017.4 0.0
21/04:00am 24.0 21.7 14.7 56 5.5 ESE 20 35 11 19 1017.2 1017.2 0.0
21/03:30am 23.9 20.3 14.3 55 5.7 SE 26 43 14 23 1017.1 1017.1 0.0
21/03:00am 24.0 21.0 14.7 56 5.5 SE 24 44 13 24 1017.3 1017.3 0.0
21/02:30am 23.9 22.0 15.7 60 5.0 SE 20 43 11 23 1017.5 1017.5 0.0
21/02:00am 24.1 21.1 14.8 56 5.5 SE 24 41 13 22 1017.7 1017.7 0.0
21/01:30am 24.1 20.7 14.8 56 5.5 SE 26 41 14 22 1018.4 1018.4 0.0
21/01:00am 24.3 21.3 13.8 52 6.1 SE 22 41 12 22 1018.8 1018.8 0.0
21/12:30am 24.2 21.6 14.9 56 5.6 ESE 22 37 12 20 1019.2 1019.2 0.0
21/12:00am 24.2 21.5 14.6 55 5.7 SE 22 33 12 18 1019.6 1019.6 0.0
 
Date/Time
EST
Temp
°C
App
Temp
°C
Dew
Point
Rel
Hum
%
Delta-T
°C
Wind Press
QNH
hPa
Press
MSL
hPa
Rain
since 9 am
mm
Dir
 
Spd
km/h
Gust
km/h
Spd
kts
Gust
kts
20/11:30pm 24.3 21.8 15.2 57 5.5 ESE 22 35 12 19 1019.7 1019.7 0.0
20/11:00pm 24.1 21.6 15.1 57 5.4 ESE 22 37 12 20 1019.9 1019.9 0.0
20/10:30pm 24.2 21.9 15.7 59 5.1 ESE 22 39 12 21 1020.0 1020.0 0.0
20/10:00pm 24.3 21.9 14.4 54 5.8 ESE 20 33 11 18 1020.1 1020.1 0.0
20/09:30pm 24.2 22.3 15.7 59 5.1 ESE 20 33 11 18 1020.0 1020.0 0.0
20/09:00pm 24.2 21.6 15.9 59 5.0 ESE 24 43 13 23 1019.7 1019.7 0.0
20/08:30pm 24.1 20.1 15.3 58 5.3 ESE 30 41 16 22 1019.3 1019.3 0.0
20/08:00pm 24.3 21.3 15.8 59 5.1 ESE 26 41 14 22 1018.9 1018.9 0.0
20/07:30pm 24.2 22.0 15.9 59 5.0 ESE 22 39 12 21 1018.6 1018.6 0.0
20/07:00pm 24.1 20.8 15.1 57 5.4 ESE 26 43 14 23 1018.2 1018.2 0.0
20/06:30pm 24.2 22.3 15.7 59 5.1 ESE 20 33 11 18 1018.3 1018.3 0.0
20/06:00pm 24.3 21.7 15.0 56 5.6 ESE 22 37 12 20 1017.9 1017.9 0.0
20/05:30pm 24.8 23.2 16.0 58 5.4 ESE 19 32 10 17 1017.7 1017.7 0.0
20/05:00pm 24.6 22.4 15.0 55 5.7 SE 20 32 11 17 1017.2 1017.2 0.0
20/04:30pm 25.0 22.8 14.8 53 6.1 ESE 20 33 11 18 1017.1 1017.1 0.0
20/04:00pm 25.2 22.5 14.6 51 6.3 ESE 22 35 12 19 1017.2 1017.2 0.0
20/03:30pm 24.9 20.4 13.8 50 6.5 ESE 30 46 16 25 1017.1 1017.1 0.0
20/03:23pm 24.9 20.9 14.1 51 6.4 ESE 28 46 15 25 1017.1 1017.1 0.0
20/03:00pm 24.9 21.3 14.1 51 6.4 ESE 26 41 14 22 1017.1 1017.1 0.0
20/02:36pm 24.8 20.9 14.3 52 6.2 ESE 28 46 15 25 1017.2 1017.2 0.0
20/02:30pm 25.0 22.7 15.6 56 5.7 SSE 22 35 12 19 1017.3 1017.3 0.0
20/02:00pm 25.0 22.0 14.8 53 6.1 SE 24 43 13 23 1017.6 1017.6 0.0
20/01:30pm 24.9 21.7 15.2 54 5.8 ESE 26 41 14 22 1018.1 1018.1 0.0
20/01:00pm 24.5 20.6 14.3 53 6.0 ESE 28 50 15 27 1018.3 1018.3 0.0
20/12:30pm 24.5 21.3 16.2 60 5.1 ESE 28 46 15 25 1018.8 1018.8 0.0
20/12:07pm 24.3 21.0 16.0 60 5.0 ESE 28 48 15 26 1019.3 1019.3 0.0
20/12:00pm 24.5 21.8 16.7 61 4.8 ESE 26 43 14 23 1019.4 1019.4 0.0
20/11:30am 24.4 21.1 16.1 60 5.1 SE 28 44 15 24 1020.0 1020.0 0.0
20/11:00am 24.2 20.8 15.9 59 5.0 SE 28 39 15 21 1020.4 1020.4 0.0
20/10:30am 24.2 20.9 15.1 56 5.4 ESE 26 43 14 23 1020.5 1020.5 0.0
20/10:00am 24.2 20.5 14.9 56 5.5 SE 28 48 15 26 1020.7 1020.7 0.0
20/09:53am 24.4 20.4 15.3 57 5.5 SE 30 48 16 26 1020.6 1020.6 0.0
20/09:30am 24.0 22.0 15.0 57 5.4 S 19 32 10 17 1021.0 1021.0 0.0
20/09:00am 23.6 20.9 14.6 57 5.3 S 22 35 12 19 1021.0 1021.0 0.0
20/08:30am 23.6 20.6 14.9 58 5.2 S 24 39 13 21 1020.7 1020.7 0.0
20/08:00am 23.6 21.2 15.4 60 4.9 S 22 33 12 18 1020.5 1020.5 0.0
20/07:30am 23.3 21.2 16.1 64 4.4 S 22 32 12 17 1020.2 1020.2 0.0
20/07:00am 23.4 21.3 16.2 64 4.4 S 22 37 12 20 1019.8 1019.8 0.0
20/06:30am 23.1 21.5 16.4 66 4.1 S 20 32 11 17 1019.3 1019.3 0.0
20/06:00am 22.9 21.4 16.4 67 3.9 S 19 28 10 15 1019.1 1019.1 0.0
20/05:30am 22.4 21.1 17.3 73 3.1 S 20 32 11 17 1018.7 1018.7 0.0
20/05:00am 22.6 19.2 17.7 74 3.0 S 32 46 17 25 1018.6 1018.6 0.0
20/04:51am 22.4 19.4 16.7 70 3.5 S 28 46 15 25 1018.4 1018.4 0.0
20/04:30am 23.3 22.1 17.1 68 3.8 S 19 26 10 14 1018.3 1018.3 0.0
20/04:01am 23.6 20.4 16.4 64 4.4 SE 28 46 15 25 1017.8 1017.8 0.0
20/04:00am 23.6 20.1 16.4 64 4.4 SE 30 46 16 25 1017.8 1017.8 0.0
20/03:58am 23.6 20.5 16.6 65 4.3 SE 28 46 15 25 1017.7 1017.7 0.0
20/03:30am 23.7 21.3 16.5 64 4.4 SE 24 39 13 21 1017.9 1017.9 0.0
20/03:00am 23.7 20.4 16.0 62 4.7 SE 28 44 15 24 1018.1 1018.1 0.0
20/02:30am 23.7 20.8 16.2 63 4.6 SE 26 41 14 22 1018.3 1018.3 0.0
20/02:00am 23.8 22.2 16.6 64 4.4 SSE 20 33 11 18 1018.7 1018.7 0.0
20/01:30am 23.9 21.1 16.4 63 4.6 SE 26 39 14 21 1018.9 1018.9 0.0
20/01:00am 24.0 21.1 17.0 65 4.3 SE 28 46 15 25 1019.2 1019.2 0.0
20/12:31am 24.0 20.8 16.3 62 4.7 SE 28 46 15 25 1019.4 1019.4 0.0
20/12:30am 24.0 20.7 16.0 61 4.9 SE 28 44 15 24 1019.5 1019.5 0.0
20/12:16am 23.9 20.7 16.4 63 4.6 SE 28 48 15 26 1019.7 1019.7 0.0
20/12:00am 24.0 21.8 16.8 64 4.4 SE 24 46 13 25 1019.9 1019.9 0.0
 
Date/Time
EST
Temp
°C
App
Temp
°C
Dew
Point
Rel
Hum
%
Delta-T
°C
Wind Press
QNH
hPa
Press
MSL
hPa
Rain
since 9 am
mm
Dir
 
Spd
km/h
Gust
km/h
Spd
kts
Gust
kts
19/11:30pm 24.1 21.7 16.4 62 4.7 SE 24 44 13 24 1020.3 1020.3 0.0
19/11:00pm 24.1 20.8 16.1 61 4.9 SE 28 43 15 23 1020.4 1020.4 0.0
19/10:31pm 24.2 20.7 15.4 58 5.3 ESE 28 48 15 26 1020.6 1020.6 0.0
19/10:30pm 24.3 21.4 16.0 60 5.0 ESE 26 48 14 26 1020.6 1020.6 0.0
19/10:09pm 24.4 21.1 16.1 60 5.1 SE 28 46 15 25 1020.7 1020.7 0.0
19/10:00pm 24.2 21.3 16.2 61 4.9 ESE 26 44 14 24 1020.7 1020.7 0.0
19/09:48pm 24.2 20.8 15.9 59 5.0 SE 28 48 15 26 1020.8 1020.8 0.0
19/09:30pm 24.3 21.3 15.8 59 5.1 ESE 26 46 14 25 1020.6 1020.6 0.0
19/09:00pm 24.3 21.4 17.1 64 4.4 ESE 28 48 15 26 1020.2 1020.2 0.0
19/08:38pm 24.3 21.1 16.3 61 4.9 ESE 28 46 15 25 1019.9 1019.9 0.0
19/08:30pm 24.2 21.1 15.7 59 5.1 SE 26 43 14 23 1019.9 1019.9 0.0
19/08:02pm 24.3 21.3 16.8 63 4.6 SE 28 48 15 26 1019.5 1019.5 0.0
19/08:00pm 24.2 21.5 16.7 63 4.6 ESE 26 48 14 26 1019.5 1019.5 0.0
19/07:42pm 24.2 20.8 15.9 59 5.0 ESE 28 46 15 25 1019.4 1019.4 0.0
19/07:30pm 24.3 21.6 16.6 62 4.7 ESE 26 44 14 24 1019.4 1019.4 0.0
19/07:17pm 24.4 21.3 16.6 61 4.8 ESE 28 46 15 25 1019.3 1019.3 0.0
19/07:00pm 24.3 21.6 16.6 62 4.7 ESE 26 44 14 24 1019.2 1019.2 0.0
19/06:35pm 24.2 21.0 16.2 61 4.9 ESE 28 57 15 31 1019.0 1019.0 0.0
19/06:30pm 24.2 21.5 16.5 62 4.7 ESE 26 46 14 25 1018.9 1018.9 0.0
19/06:01pm 24.4 21.1 16.9 63 4.6 ESE 30 48 16 26 1018.6 1018.6 0.0
19/06:00pm 24.3 20.7 16.3 61 4.9 ESE 30 46 16 25 1018.6 1018.6 0.0
19/05:30pm 24.6 20.6 16.3 60 5.1 ESE 32 50 17 27 1018.1 1018.1 0.0
19/05:00pm 25.0 21.0 16.2 58 5.4 ESE 32 56 17 30 1017.7 1017.7 0.0
19/04:37pm 25.0 20.9 15.9 57 5.5 ESE 32 50 17 27 1017.4 1017.4 0.0
19/04:30pm 25.1 21.2 16.5 59 5.3 ESE 32 48 17 26 1017.4 1017.4 0.0
19/04:08pm 25.2 21.6 16.3 57 5.5 ESE 30 48 16 26 1017.4 1017.4 0.0
19/04:00pm 25.2 21.2 16.1 57 5.6 ESE 32 48 17 26 1017.4 1017.4 0.0
19/03:30pm 25.4 21.4 15.1 53 6.2 ESE 30 48 16 26 1017.4 1017.4 0.0
19/03:22pm 25.1 21.7 15.7 56 5.7 E 28 46 15 25 1017.3 1017.3 0.0
19/03:00pm 25.3 21.9 15.9 56 5.7 SE 28 39 15 21 1017.6 1017.6 0.0
19/02:30pm 25.3 22.8 16.2 57 5.6 SE 24 37 13 20 1017.9 1017.9 0.0
19/02:00pm 25.2 21.5 14.9 52 6.2 SE 28 44 15 24 1018.1 1018.1 0.0
19/01:32pm 25.1 21.3 14.6 52 6.3 SE 28 46 15 25 1018.2 1018.2 0.0
19/01:30pm 25.1 21.4 15.1 53 6.0 SE 28 44 15 24 1018.3 1018.3 0.0
19/01:01pm 25.1 21.0 13.9 49 6.6 SE 28 46 15 25 1018.6 1018.6 0.0
19/01:00pm 25.1 21.7 14.8 52 6.1 ESE 26 41 14 22 1018.7 1018.7 0.0
19/12:31pm 24.8 21.1 14.9 54 5.9 ESE 28 48 15 26 1019.1 1019.1 0.0
19/12:30pm 24.9 21.8 15.5 56 5.7 SE 26 48 14 26 1019.1 1019.1 0.0
19/12:00pm 24.8 20.5 14.3 52 6.2 ESE 30 48 16 26 1019.5 1019.5 0.0
19/11:30am 25.1 21.1 15.1 53 6.0 SE 30 48 16 26 1019.8 1019.8 0.0
19/11:00am 24.4 21.2 15.3 57 5.5 SE 26 43 14 23 1020.2 1020.2 0.0
19/10:30am 24.6 22.1 15.2 55 5.6 ESE 22 37 12 20 1020.5 1020.5 0.0
19/10:00am 24.5 22.6 15.7 58 5.3 SE 20 35 11 19 1020.7 1020.7 0.0
19/09:30am 24.3 22.7 15.0 56 5.6 S 17 26 9 14 1020.8 1020.8 0.0
19/09:00am 24.1 22.3 16.1 61 4.9 S 20 32 11 17 1020.8 1020.8 0.0
19/08:30am 24.0 22.5 15.2 58 5.3 S 17 24 9 13 1020.9 1020.9 0.0
19/08:00am 23.9 22.3 15.1 58 5.2 S 17 26 9 14 1020.8 1020.8 0.0
19/07:30am 23.9 22.1 15.4 59 5.1 S 19 28 10 15 1020.5 1020.5 0.0
19/07:00am 23.8 21.9 15.3 59 5.1 S 19 32 10 17 1020.0 1020.0 0.0
19/06:30am 23.7 21.8 15.2 59 5.1 SSE 19 32 10 17 1019.6 1019.6 0.0
19/06:04am 24.0 20.1 14.4 55 5.7 SE 28 46 15 25 1019.1 1019.1 0.0
19/06:00am 23.9 19.4 13.7 53 5.9 SE 30 46 16 25 1019.0 1019.0 0.0
19/05:32am 23.9 19.8 13.7 53 6.0 SE 28 46 15 25 1018.8 1018.8 0.0
19/05:30am 23.9 20.4 14.6 56 5.5 SE 26 44 14 24 1018.8 1018.8 0.0
19/05:10am 23.7 19.8 14.4 56 5.5 SE 28 46 15 25 1018.5 1018.5 0.0
19/05:00am 23.8 19.4 14.2 55 5.6 SE 30 44 16 24 1018.4 1018.4 0.0
19/04:35am 23.8 19.8 14.2 55 5.7 SE 28 46 15 25 1018.3 1018.3 0.0
19/04:30am 23.7 20.8 14.1 55 5.6 SSE 22 43 12 23 1018.3 1018.3 0.0
19/04:00am 23.8 20.9 15.0 57 5.2 SE 24 41 13 22 1018.4 1018.4 0.0
19/03:30am 23.8 19.3 13.9 54 5.8 ESE 30 44 16 24 1018.4 1018.4 0.0
19/03:00am 24.0 20.0 14.1 54 5.8 ESE 28 35 15 19 1018.4 1018.4 0.0
19/02:30am 23.9 20.6 15.1 58 5.3 SE 26 43 14 23 1018.6 1018.6 0.0
19/02:00am 24.0 20.1 13.2 50 6.2 SE 26 39 14 21 1018.8 1018.8 0.0
19/01:47am 24.1 19.7 13.0 50 6.4 ESE 28 48 15 26 1018.9 1018.9 0.0
19/01:30am 24.2 20.0 13.4 51 6.3 SE 28 44 15 24 1019.1 1019.1 0.0
19/01:00am 24.1 20.7 13.6 52 6.1 SE 24 44 13 24 1019.4 1019.4 0.0
19/12:30am 24.1 21.0 14.5 55 5.7 ESE 24 43 13 23 1019.7 1019.7 0.0
19/12:00am 24.0 20.9 14.4 55 5.7 ESE 24 41 13 22 1020.1 1020.1 0.0
 
Date/Time
EST
Temp
°C
App
Temp
°C
Dew
Point
Rel
Hum
%
Delta-T
°C
Wind Press
QNH
hPa
Press
MSL
hPa
Rain
since 9 am
mm
Dir
 
Spd
km/h
Gust
km/h
Spd
kts
Gust
kts
18/11:30pm 24.3 21.5 14.4 54 5.9 ESE 22 37 12 20 1020.3 1020.3 0.0
18/11:00pm 24.2 22.2 15.4 58 5.3 ESE 20 35 11 19 1020.5 1020.5 0.0
18/10:30pm 24.4 21.9 15.1 56 5.6 ESE 22 41 12 22 1020.7 1020.7 0.0
18/10:00pm 24.4 22.3 15.1 56 5.6 ESE 20 39 11 21 1020.6 1020.6 0.0
18/09:30pm 24.6 21.1 13.5 50 6.5 ESE 24 39 13 21 1020.4 1020.4 0.0
18/09:00pm 24.4 22.3 15.3 57 5.5 ESE 20 35 11 19 1020.3 1020.3 0.0
18/08:30pm 24.5 22.9 16.0 59 5.2 ESE 19 28 10 15 1020.1 1020.1 0.0
18/08:00pm 24.5 23.2 15.7 58 5.3 SE 17 28 9 15 1019.9 1019.9 0.0
18/07:30pm 24.5 22.9 16.0 59 5.2 ESE 19 33 10 18 1019.7 1019.7 0.0
18/07:00pm 24.5 23.9 15.7 58 5.3 SE 13 26 7 14 1019.4 1019.4 0.0

Other Formats:

Comma delimited format used in spreadsheet applications
http://www.bom.gov.au/fwo/IDQ60801/IDQ60801.94295.axf

JavaScript Object Notation format (JSON) in row-major order
http://www.bom.gov.au/fwo/IDQ60801/IDQ60801.94295.json